Time;durP1;ratioP1;P1;durP2;ratioP2;P2;SDS_P1;SDS_P2;PMS_P1;PMS_P2;Temp;Humidity;BMP_temperature;BMP_pressure;BME280_temperature;BME280_humidity;BME280_pressure;Samples;Min_cycle;Max_cycle;Signal;HPM_P1;HPM_P2
2023/10/20 00:00:15;;;;;;;3.20;1.80;;;;;;;;;;20778822;23;20300;-67
2023/10/20 00:10:17;;;;;;;2.30;1.80;;;;;;;;;;20779589;28;20231;-67
2023/10/20 00:20:20;;;;;;;1.67;1.17;;;;;;;;;;20756457;28;20242;-67
2023/10/20 00:30:21;;;;;;;2.47;1.70;;;;;;;;;;20742661;28;20289;-67
2023/10/20 00:40:23;;;;;;;2.60;2.00;;;;;;;;;;20746512;28;20226;-67
2023/10/20 00:50:26;;;;;;;1.87;1.40;;;;;;;;;;20731748;28;20586;-66
2023/10/20 01:00:28;;;;;;;3.20;1.80;;;;;;;;;;20732656;28;20281;-66
2023/10/20 01:10:30;;;;;;;1.83;1.40;;;;;;;;;;20797920;28;20227;-66
2023/10/20 01:20:32;;;;;;;2.33;1.37;;;;;;;;;;20716650;28;20222;-67
2023/10/20 01:30:34;;;;;;;2.50;1.73;;;;;;;;;;20728595;28;20673;-67
2023/10/20 01:40:35;;;;;;;2.97;1.90;;;;;;;;;;20726904;28;20230;-67
2023/10/20 01:50:37;;;;;;;3.00;2.03;;;;;;;;;;20735114;23;20219;-66
2023/10/20 02:00:39;;;;;;;2.50;1.57;;;;;;;;;;20621214;28;20286;-66
2023/10/20 02:10:43;;;;;;;4.17;1.73;;;;;;;;;;20567991;28;20227;-66
2023/10/20 02:20:45;;;;;;;4.53;2.00;;;;;;;;;;20588945;28;20236;-66
2023/10/20 02:30:47;;;;;;;2.10;1.50;;;;;;;;;;20625972;28;20220;-66
2023/10/20 02:40:50;;;;;;;3.10;1.60;;;;;;;;;;20621334;28;20278;-66
2023/10/20 02:50:52;;;;;;;2.47;1.70;;;;;;;;;;20696005;28;20269;-66
2023/10/20 03:00:54;;;;;;;2.30;1.50;;;;;;;;;;20706708;28;20223;-66
2023/10/20 03:10:56;;;;;;;1.90;1.30;;;;;;;;;;20684650;28;20285;-66
2023/10/20 03:21:02;;;;;;;2.30;1.40;;;;;;;;;;20724135;28;20234;-66
2023/10/20 03:31:04;;;;;;;1.70;1.33;;;;;;;;;;20660384;28;20231;-65
2023/10/20 03:41:10;;;;;;;3.40;1.33;;;14.10;99.90;;;;;;20701151;28;20709;-66
2023/10/20 03:51:12;;;;;;;2.27;1.37;;;14.10;99.90;;;;;;20661853;28;20259;-66
2023/10/20 04:01:14;;;;;;;2.23;1.30;;;;;;;;;;20675192;28;20231;-66
2023/10/20 04:11:17;;;;;;;2.60;1.67;;;;;;;;;;20705402;28;20281;-66
2023/10/20 04:21:19;;;;;;;2.40;1.63;;;;;;;;;;20685366;28;20301;-67
2023/10/20 05:02:32;;;;;;;1.90;1.30;;;;;;;;;;20692727;28;20232;-65
2023/10/20 05:12:35;;;;;;;2.27;1.37;;;;;;;;;;20665778;28;20293;-65
2023/10/20 05:22:37;;;;;;;1.53;1.10;;;;;;;;;;20674534;28;20238;-66
2023/10/20 05:32:40;;;;;;;1.13;1.03;;;;;;;;;;20681177;28;20499;-65
2023/10/20 05:42:44;;;;;;;6.63;4.07;;;;;;;;;;20669616;28;20235;-65
2023/10/20 05:52:47;;;;;;;6.00;3.83;;;;;;;;;;20685629;28;20285;-65
2023/10/20 06:02:48;;;;;;;2.83;2.00;;;;;;;;;;20644685;28;20211;-65
2023/10/20 06:12:51;;;;;;;2.20;1.10;;;;;;;;;;20708094;28;20764;-65
2023/10/20 06:22:53;;;;;;;2.13;1.27;;;;;;;;;;20653049;28;20223;-65
2023/10/20 06:33:16;;;;;;;7.27;3.90;;;;;;;;;;20679630;28;20242;-65
2023/10/20 06:43:19;;;;;;;2.60;1.80;;;;;;;;;;20653401;28;20280;-65
2023/10/20 06:53:21;;;;;;;2.10;1.17;;;;;;;;;;20644893;28;20277;-65
2023/10/20 07:03:25;;;;;;;2.67;1.30;;;;;;;;;;20672072;28;20223;-65
2023/10/20 07:13:27;;;;;;;4.27;1.63;;;;;;;;;;20687009;28;20632;-65
2023/10/20 07:23:28;;;;;;;1.77;1.37;;;;;;;;;;20672880;28;20227;-65
2023/10/20 07:33:31;;;;;;;2.13;1.20;;;;;;;;;;20698627;28;20586;-66
2023/10/20 07:43:33;;;;;;;2.20;1.67;;;14.20;99.90;;;;;;20697787;28;20227;-66
2023/10/20 07:53:35;;;;;;;2.30;1.60;;;;;;;;;;20653651;28;20223;-66
2023/10/20 08:03:37;;;;;;;2.63;1.70;;;;;;;;;;20669232;28;20223;-65
2023/10/20 08:13:39;;;;;;;2.47;1.60;;;;;;;;;;20678698;28;20646;-66
2023/10/20 08:23:41;;;;;;;2.20;1.30;;;;;;;;;;20662696;28;20293;-66
2023/10/20 08:33:43;;;;;;;2.13;1.30;;;;;;;;;;20673045;28;20738;-66
2023/10/20 08:43:45;;;;;;;2.20;1.67;;;14.20;99.90;;;;;;20668587;28;20219;-65
2023/10/20 08:53:48;;;;;;;2.57;1.73;;;;;;;;;;20678666;28;20227;-66
2023/10/20 09:03:54;;;;;;;1.80;1.30;;;;;;;;;;20688109;28;20211;-66
2023/10/20 09:13:58;;;;;;;2.83;1.70;;;14.40;99.90;;;;;;20666025;28;20579;-65
2023/10/20 09:24:04;;;;;;;2.47;1.70;;;;;;;;;;20647888;28;20336;-66
2023/10/20 09:34:06;;;;;;;4.53;1.67;;;;;;;;;;20668029;28;20662;-66
2023/10/20 09:44:09;;;;;;;3.47;2.17;;;;;;;;;;20763440;23;20287;-76
2023/10/20 09:54:12;;;;;;;5.50;2.17;;;;;;;;;;20769109;28;20215;-75
2023/10/20 10:04:14;;;;;;;4.37;2.00;;;;;;;;;;20806902;28;20623;-75
2023/10/20 10:14:20;;;;;;;3.07;1.53;;;;;;;;;;20789832;28;20768;-75
2023/10/20 10:24:22;;;;;;;2.30;1.80;;;;;;;;;;20788719;28;20222;-74
2023/10/20 10:34:25;;;;;;;2.60;1.67;;;;;;;;;;20794404;28;20253;-74
2023/10/20 10:44:30;;;;;;;1.90;1.40;;;;;;;;;;20787366;28;20266;-74
2023/10/20 10:54:35;;;;;;;2.33;1.47;;;;;;;;;;20808923;28;20432;-76
2023/10/20 11:04:37;;;;;;;2.17;1.27;;;;;;;;;;20824326;28;20772;-75
2023/10/20 11:14:39;;;;;;;4.83;1.20;;;;;;;;;;20782650;28;20248;-76
2023/10/20 11:24:41;;;;;;;1.50;1.17;;;;;;;;;;20790970;28;20223;-76
2023/10/20 11:34:43;;;;;;;1.73;0.90;;;;;;;;;;20813107;28;20223;-75
2023/10/20 11:44:45;;;;;;;1.10;0.70;;;;;;;;;;20788837;28;20218;-75
2023/10/20 11:54:48;;;;;;;1.07;0.70;;;;;;;;;;20766364;28;20794;-77
2023/10/20 12:04:50;;;;;;;0.50;0.40;;;;;;;;;;20811322;28;20764;-76
2023/10/20 12:14:52;;;;;;;0.60;0.50;;;;;;;;;;20805669;28;20215;-76
2023/10/20 12:24:53;;;;;;;0.43;0.30;;;;;;;;;;20766470;28;20215;-78
2023/10/20 12:34:55;;;;;;;0.90;0.60;;;;;;;;;;20801406;28;20223;-77
2023/10/20 12:45:00;;;;;;;0.97;0.47;;;16.60;99.90;;;;;;20779899;28;20257;-76
2023/10/20 12:55:05;;;;;;;0.43;0.40;;;;;;;;;;20798531;28;20241;-77
2023/10/20 13:05:07;;;;;;;0.43;0.30;;;;;;;;;;20773881;28;20226;-76
2023/10/20 13:15:13;;;;;;;0.27;0.20;;;;;;;;;;20801144;28;20223;-77
2023/10/20 13:25:15;;;;;;;0.63;0.30;;;;;;;;;;20770574;28;20226;-76
2023/10/20 13:35:17;;;;;;;3.57;0.80;;;;;;;;;;20805760;28;20670;-76
2023/10/20 13:45:19;;;;;;;0.23;0.20;;;;;;;;;;20778142;28;20238;-77
2023/10/20 13:55:22;;;;;;;0.20;0.20;;;;;;;;;;20753640;28;20225;-76
2023/10/20 14:05:23;;;;;;;0.20;0.20;;;;;;;;;;20776171;28;20214;-77
2023/10/20 14:15:25;;;;;;;0.10;0.10;;;;;;;;;;20798202;28;20713;-75
2023/10/20 14:25:27;;;;;;;0.20;0.20;;;;;;;;;;20810610;28;20243;-77
2023/10/20 14:35:29;;;;;;;0.20;0.20;;;;;;;;;;20776371;28;20230;-76
2023/10/20 14:45:31;;;;;;;0.50;0.20;;;;;;;;;;20775865;28;20288;-76
2023/10/20 14:55:35;;;;;;;0.10;0.10;;;16.50;99.90;;;;;;20808505;28;20271;-75
2023/10/20 15:05:38;;;;;;;0.60;0.20;;;;;;;;;;20824629;28;20283;-75
2023/10/20 15:15:39;;;;;;;0.83;0.20;;;;;;;;;;20804805;28;20751;-76
2023/10/20 15:25:41;;;;;;;0.20;0.20;;;;;;;;;;20801080;28;20280;-77
2023/10/20 15:35:43;;;;;;;0.57;0.20;;;;;;;;;;20814029;28;20261;-76
2023/10/20 15:45:45;;;;;;;0.30;0.30;;;;;;;;;;20779778;23;20282;-74
2023/10/20 15:55:47;;;;;;;0.30;0.20;;;;;;;;;;20707808;28;20231;-75
2023/10/20 16:05:49;;;;;;;1.53;0.30;;;;;;;;;;20710905;28;20273;-75
2023/10/20 16:15:50;;;;;;;1.73;1.00;;;;;;;;;;20710812;28;20222;-74
2023/10/20 16:25:52;;;;;;;0.70;0.47;;;;;;;;;;20737554;28;20608;-74
2023/10/20 16:35:54;;;;;;;0.20;0.20;;;;;;;;;;20717919;28;20775;-74
2023/10/20 16:45:56;;;;;;;0.40;0.30;;;;;;;;;;20695802;28;20760;-75
2023/10/20 16:55:59;;;;;;;0.20;0.20;;;;;;;;;;20730129;28;20285;-75
2023/10/20 17:06:06;;;;;;;2.00;0.30;;;15.80;99.90;;;;;;20713976;28;20239;-75
2023/10/20 17:16:08;;;;;;;1.63;0.50;;;;;;;;;;20698180;28;20586;-74
2023/10/20 17:26:10;;;;;;;0.60;0.47;;;;;;;;;;20731698;28;20269;-75
2023/10/20 17:36:12;;;;;;;0.73;0.50;;;;;;;;;;20703946;28;20581;-75
2023/10/20 17:46:16;;;;;;;0.40;0.40;;;15.50;99.90;;;;;;20659647;28;20230;-75
2023/10/20 17:56:18;;;;;;;0.70;0.50;;;;;;;;;;20711873;28;20219;-75
2023/10/20 18:06:20;;;;;;;0.37;0.30;;;;;;;;;;20705245;28;20297;-75
2023/10/20 18:16:22;;;;;;;0.43;0.30;;;;;;;;;;20704434;28;20234;-74
2023/10/20 18:26:24;;;;;;;0.83;0.47;;;;;;;;;;20661584;28;20227;-75
2023/10/20 18:36:26;;;;;;;1.47;0.80;;;15.20;99.90;;;;;;20708455;28;20259;-75
2023/10/20 18:46:27;;;;;;;0.97;0.60;;;;;;;;;;20716051;28;20633;-74
2023/10/20 18:56:29;;;;;;;0.87;0.60;;;;;;;;;;20701654;28;20219;-75
2023/10/20 19:06:31;;;;;;;1.23;0.47;;;;;;;;;;20701499;28;20220;-74
2023/10/20 19:16:34;;;;;;;0.60;0.47;;;;;;;;;;20742855;28;20232;-75
2023/10/20 19:26:35;;;;;;;0.60;0.47;;;;;;;;;;20730121;28;20204;-74
2023/10/20 19:36:38;;;;;;;0.63;0.50;;;;;;;;;;20696195;28;20236;-74
2023/10/20 19:46:40;;;;;;;1.83;0.70;;;;;;;;;;20707262;28;20317;-74
2023/10/20 19:56:43;;;;;;;0.80;0.60;;;;;;;;;;20718612;28;20231;-74
2023/10/20 20:06:45;;;;;;;1.93;0.90;;;;;;;;;;20723588;28;20257;-74
2023/10/20 20:16:48;;;;;;;1.10;0.70;;;15.00;99.90;;;;;;20690739;28;20274;-75
2023/10/20 20:26:49;;;;;;;0.63;0.53;;;;;;;;;;20723030;28;20219;-75
2023/10/20 20:36:51;;;;;;;1.80;0.60;;;;;;;;;;20703837;28;20215;-74
2023/10/20 20:46:53;;;;;;;4.60;2.70;;;;;;;;;;20708447;28;20249;-74
2023/10/20 20:56:55;;;;;;;0.63;0.50;;;;;;;;;;20716242;28;20219;-75
2023/10/20 21:06:56;;;;;;;0.70;0.43;;;;;;;;;;20682643;28;20220;-75
2023/10/20 21:16:59;;;;;;;0.57;0.40;;;;;;;;;;20702113;28;20275;-74
2023/10/20 21:27:00;;;;;;;0.80;0.53;;;;;;;;;;20678364;28;20648;-74
2023/10/20 21:37:03;;;;;;;0.60;0.40;;;;;;;;;;20704133;28;20223;-74
2023/10/20 21:47:05;;;;;;;1.23;0.63;;;;;;;;;;20724186;28;20226;-74
2023/10/20 21:57:07;;;;;;;1.03;0.50;;;;;;;;;;20712695;28;20294;-75
2023/10/20 22:07:08;;;;;;;1.10;0.50;;;;;;;;;;20711952;28;20269;-74
2023/10/20 22:17:10;;;;;;;2.43;0.60;;;;;;;;;;20739678;23;20253;-75
2023/10/20 22:27:12;;;;;;;0.43;0.40;;;;;;;;;;20763232;28;20215;-75
2023/10/20 22:37:14;;;;;;;0.47;0.40;;;;;;;;;;20732416;28;20234;-74
2023/10/20 22:47:15;;;;;;;1.23;0.40;;;;;;;;;;20786959;28;20889;-74
2023/10/20 22:57:17;;;;;;;0.37;0.37;;;;;;;;;;20773503;28;20222;-75
2023/10/20 23:07:19;;;;;;;0.30;0.30;;;;;;;;;;20755728;28;20289;-74
2023/10/20 23:17:21;;;;;;;0.40;0.40;;;;;;;;;;20773877;28;20296;-75
2023/10/20 23:27:22;;;;;;;0.83;0.40;;;;;;;;;;20771255;28;20266;-75
2023/10/20 23:37:24;;;;;;;0.50;0.40;;;;;;;;;;20771888;28;20253;-75
2023/10/20 23:47:26;;;;;;;1.47;0.50;;;;;;;;;;20801863;28;20215;-75
2023/10/20 23:57:27;;;;;;;0.93;0.40;;;;;;;;;;20822586;28;20272;-75
